Time;durP1;ratioP1;P1;durP2;ratioP2;P2;SDS_P1;SDS_P2;PMS_P1;PMS_P2;Temp;Humidity;BMP_temperature;BMP_pressure;BME280_temperature;BME280_humidity;BME280_pressure;Samples;Min_cycle;Max_cycle;Signal;HPM_P1;HPM_P2
2021/04/06 00:02:49;0.00;0.00;0.62;0.00;0.00;0.62;1.40;0.90;;;22.70;21.90;;;;;;2233241;62;20764;-58
2021/04/06 00:05:34;0.00;0.00;0.62;0.00;0.00;0.62;1.97;0.90;;;22.80;22.00;;;;;;2233918;62;20413;-59
2021/04/06 00:08:19;0.00;0.00;0.62;0.00;0.00;0.62;2.27;1.03;;;22.70;21.80;;;;;;2233534;62;20416;-59
2021/04/06 00:11:07;0.00;0.00;0.62;0.00;0.00;0.62;1.50;0.73;;;22.70;21.80;;;;;;2233660;62;20445;-60
2021/04/06 00:13:53;0.00;0.00;0.62;0.00;0.00;0.62;2.20;1.40;;;22.70;21.80;;;;;;2233914;62;20428;-60
2021/04/06 00:16:40;0.00;0.00;0.62;0.00;0.00;0.62;1.60;0.90;;;22.70;21.70;;;;;;2232961;62;20430;-59
2021/04/06 00:19:30;0.00;0.00;0.62;0.00;0.00;0.62;2.70;1.20;;;22.60;21.70;;;;;;2233980;62;20381;-59
2021/04/06 00:22:18;0.00;0.00;0.62;0.00;0.00;0.62;1.60;0.80;;;22.60;21.60;;;;;;2233431;62;20606;-59
2021/04/06 00:25:06;0.00;0.00;0.62;0.00;0.00;0.62;1.40;0.70;;;22.60;21.60;;;;;;2233307;62;20362;-60
2021/04/06 00:27:52;0.00;0.00;0.62;0.00;0.00;0.62;1.47;0.90;;;22.60;21.50;;;;;;2233794;62;20756;-59
2021/04/06 00:30:40;0.00;0.00;0.62;0.00;0.00;0.62;1.50;0.97;;;22.50;21.40;;;;;;2233355;62;20373;-59
2021/04/06 00:33:28;0.00;0.00;0.62;0.00;0.00;0.62;1.37;0.80;;;22.50;21.40;;;;;;2235904;62;20393;-59
2021/04/06 00:36:25;0.00;0.00;0.62;0.00;0.00;0.62;2.70;1.07;;;22.50;21.40;;;;;;2233734;62;20658;-60
2021/04/06 00:39:10;0.00;0.00;0.62;0.00;0.00;0.62;2.27;0.90;;;22.40;21.30;;;;;;2233132;62;20366;-59
2021/04/06 00:42:00;0.00;0.00;0.62;0.00;0.00;0.62;1.30;1.00;;;22.40;21.30;;;;;;2233874;62;20721;-59
2021/04/06 00:44:51;0.00;0.00;0.62;0.00;0.00;0.62;1.60;0.93;;;22.40;21.30;;;;;;2233784;62;20655;-59
2021/04/06 00:47:36;0.00;0.00;0.62;0.00;0.00;0.62;1.50;0.70;;;22.40;21.80;;;;;;2233853;62;20446;-59
2021/04/06 00:50:21;0.00;0.00;0.62;0.00;0.00;0.62;1.67;1.07;;;22.40;21.30;;;;;;2234496;62;20446;-59
2021/04/06 00:53:09;0.00;0.00;0.62;0.00;0.00;0.62;1.30;0.80;;;22.30;21.20;;;;;;2235942;62;20780;-59
2021/04/06 00:55:54;0.00;0.00;0.62;0.00;0.00;0.62;1.60;0.90;;;22.30;21.20;;;;;;2234194;62;20590;-59
2021/04/06 00:58:42;0.00;0.00;0.62;0.00;0.00;0.62;1.87;1.10;;;22.20;21.10;;;;;;2234325;62;20751;-58
2021/04/06 01:01:33;0.00;0.00;0.62;0.00;0.00;0.62;1.60;0.90;;;22.20;21.10;;;;;;2233858;62;20791;-59
2021/04/06 01:04:21;0.00;0.00;0.62;0.00;0.00;0.62;1.20;0.77;;;22.20;21.10;;;;;;2234530;62;20487;-59
2021/04/06 01:07:09;0.00;0.00;0.62;0.00;0.00;0.62;1.20;0.90;;;22.10;21.10;;;;;;2233878;62;20653;-58
2021/04/06 01:09:55;0.00;0.00;0.62;0.00;0.00;0.62;1.30;0.87;;;22.10;21.10;;;;;;2233956;62;20399;-58
2021/04/06 01:12:39;0.00;0.00;0.62;0.00;0.00;0.62;4.10;1.00;;;22.10;21.00;;;;;;2234353;62;20384;-57
2021/04/06 01:15:26;0.00;0.00;0.62;0.00;0.00;0.62;1.67;0.80;;;22.10;21.10;;;;;;2233742;62;20600;-58
2021/04/06 01:18:11;0.00;0.00;0.62;0.00;0.00;0.62;1.53;0.93;;;22.10;21.10;;;;;;2234166;62;20395;-58
2021/04/06 01:20:56;0.00;0.00;0.62;0.00;0.00;0.62;1.97;1.03;;;22.00;21.00;;;;;;2234358;62;20375;-58
2021/04/06 01:23:42;0.00;0.00;0.62;0.00;0.00;0.62;1.30;0.80;;;22.00;21.00;;;;;;2233912;62;20413;-58
2021/04/06 01:26:27;0.00;0.00;0.62;0.00;0.00;0.62;1.30;0.80;;;22.00;21.00;;;;;;2234307;62;20374;-60
2021/04/06 01:29:12;0.00;0.00;0.62;0.00;0.00;0.62;1.30;0.70;;;22.00;21.00;;;;;;2234068;62;20387;-57
2021/04/06 01:31:59;0.00;0.00;0.62;0.00;0.00;0.62;1.30;0.73;;;21.90;21.00;;;;;;2233967;62;20368;-58
2021/04/06 01:34:45;0.00;0.00;0.62;0.00;0.00;0.62;1.30;0.80;;;21.90;21.00;;;;;;2234222;62;20650;-57
2021/04/06 01:37:30;0.00;0.00;0.62;0.00;0.00;0.62;2.60;0.90;;;21.90;21.00;;;;;;2233558;62;20462;-55
2021/04/06 01:40:17;0.00;0.00;0.62;0.00;0.00;0.62;1.30;0.80;;;21.90;21.00;;;;;;2234216;62;20452;-59
2021/04/06 01:43:02;0.00;0.00;0.62;0.00;0.00;0.62;1.10;0.60;;;21.80;21.00;;;;;;2234409;62;20588;-58
2021/04/06 01:45:49;0.00;0.00;0.62;0.00;0.00;0.62;1.50;0.70;;;21.80;21.00;;;;;;2233659;62;20414;-57
2021/04/06 01:48:35;0.00;0.00;0.62;0.00;0.00;0.62;1.10;0.60;;;21.80;20.90;;;;;;2234135;62;20480;-56
2021/04/06 01:51:21;0.00;0.00;0.62;0.00;0.00;0.62;1.20;0.80;;;21.80;20.90;;;;;;2234012;62;20385;-58
2021/04/06 01:54:08;0.00;0.00;0.62;0.00;0.00;0.62;1.30;0.80;;;21.70;20.80;;;;;;2233753;62;20398;-56
2021/04/06 01:56:59;0.00;0.00;0.62;0.00;0.00;0.62;1.57;0.77;;;21.70;20.80;;;;;;2233718;62;20372;-57
2021/04/06 02:00:00;0.00;0.00;0.62;0.00;0.00;0.62;1.20;0.60;;;21.70;20.80;;;;;;2235976;62;20421;-57
2021/04/06 02:02:45;0.00;0.00;0.62;0.00;0.00;0.62;1.43;0.70;;;21.70;20.80;;;;;;2233543;62;20769;-59
2021/04/06 02:05:30;0.00;0.00;0.62;0.00;0.00;0.62;1.37;0.70;;;21.70;20.80;;;;;;2233898;62;20392;-59
2021/04/06 02:08:18;0.00;0.00;0.62;0.00;0.00;0.62;1.20;0.70;;;21.60;20.70;;;;;;2233704;62;20725;-58
2021/04/06 02:11:05;0.00;0.00;0.62;0.00;0.00;0.62;1.30;0.70;;;21.60;20.70;;;;;;2234042;62;20487;-59
2021/04/06 02:13:51;0.00;0.00;0.62;0.00;0.00;0.62;1.30;0.70;;;21.60;20.70;;;;;;2236272;62;20390;-58
2021/04/06 02:16:48;0.00;0.00;0.62;0.00;0.00;0.62;1.20;0.70;;;21.50;20.70;;;;;;2233489;62;20585;-56
2021/04/06 02:19:37;0.00;0.00;0.62;0.00;0.00;0.62;1.67;0.70;;;21.50;20.70;;;;;;2234242;62;20464;-56
2021/04/06 02:22:21;0.00;0.00;0.62;0.00;0.00;0.62;1.30;0.80;;;21.50;20.70;;;;;;2233789;62;20514;-57
2021/04/06 02:25:15;0.00;0.00;0.62;0.00;0.00;0.62;1.20;0.60;;;21.50;20.70;;;;;;2234034;62;20368;-57
2021/04/06 02:28:00;0.00;0.00;0.62;0.00;0.00;0.62;1.20;0.73;;;21.50;20.70;;;;;;2233604;62;20396;-58
2021/04/06 02:30:55;0.00;0.00;0.62;0.00;0.00;0.62;1.87;0.70;;;21.50;20.70;;;;;;2233290;62;20458;-56
2021/04/06 02:33:40;0.00;0.00;0.62;0.00;0.00;0.62;1.20;0.70;;;21.40;20.60;;;;;;2234361;62;20399;-58
2021/04/06 02:36:25;0.00;0.00;0.62;0.00;0.00;0.62;2.10;0.70;;;21.40;20.60;;;;;;2233705;62;20366;-58
2021/04/06 02:39:11;0.00;0.00;0.62;0.00;0.00;0.62;1.40;0.77;;;21.40;20.60;;;;;;2233765;62;20726;-56
2021/04/06 02:41:56;0.00;0.00;0.62;0.00;0.00;0.62;1.87;0.70;;;21.30;20.50;;;;;;2234135;62;20595;-60
2021/04/06 02:44:41;0.00;0.00;0.62;0.00;0.00;0.62;1.40;0.70;;;21.30;20.50;;;;;;2233564;62;20368;-59
2021/04/06 02:47:28;0.00;0.00;0.62;0.00;0.00;0.62;1.20;0.70;;;21.30;20.50;;;;;;2233891;62;20629;-58
2021/04/06 02:50:16;0.00;0.00;0.62;0.00;0.00;0.62;1.80;1.00;;;21.20;20.40;;;;;;2236135;62;20370;-57
2021/04/06 02:53:06;0.00;0.00;0.62;0.00;0.00;0.62;2.50;0.80;;;21.20;20.40;;;;;;2235720;62;20380;-57
2021/04/06 02:55:52;0.00;0.00;0.62;0.00;0.00;0.62;2.13;0.70;;;21.20;20.50;;;;;;2234108;62;20633;-56
2021/04/06 02:58:39;0.00;0.00;0.62;0.00;0.00;0.62;1.40;0.90;;;21.10;20.40;;;;;;2233623;62;20430;-57
2021/04/06 03:01:30;0.00;0.00;0.62;0.00;0.00;0.62;1.50;0.77;;;21.10;20.50;;;;;;2233831;62;20374;-56
2021/04/06 03:04:19;0.00;0.00;0.62;0.00;0.00;0.62;1.60;1.00;;;21.10;20.50;;;;;;2234235;62;20363;-60
2021/04/06 03:07:15;0.00;0.00;0.62;0.00;0.00;0.62;1.50;0.80;;;21.10;20.50;;;;;;2233244;62;20455;-58
2021/04/06 03:10:00;0.00;0.00;0.62;0.00;0.00;0.62;2.00;1.00;;;21.10;20.40;;;;;;2234114;62;20776;-58
2021/04/06 03:12:46;0.00;0.00;0.62;0.00;0.00;0.62;1.30;1.00;;;21.00;20.40;;;;;;2233771;62;20363;-56
2021/04/06 03:15:31;0.00;0.00;0.62;0.00;0.00;0.62;1.60;0.90;;;21.00;20.40;;;;;;2233435;62;20376;-60
2021/04/06 03:18:16;0.00;0.00;0.62;0.00;0.00;0.62;1.47;0.90;;;21.00;20.40;;;;;;2236351;62;20423;-59
2021/04/06 03:21:04;0.00;0.00;0.62;0.00;0.00;0.62;1.30;0.80;;;21.00;20.40;;;;;;2233313;62;20373;-60
2021/04/06 03:23:49;0.00;0.00;0.62;0.00;0.00;0.62;1.20;0.80;;;20.90;20.40;;;;;;2233873;62;20382;-60
2021/04/06 03:26:34;0.00;0.00;0.62;0.00;0.00;0.62;1.20;0.80;;;20.90;20.40;;;;;;2233906;62;20371;-60
2021/04/06 03:29:21;0.00;0.00;0.62;0.00;0.00;0.62;1.43;1.03;;;20.90;20.40;;;;;;2233310;62;20390;-57
2021/04/06 03:32:07;0.00;0.00;0.62;0.00;0.00;0.62;2.30;1.00;;;20.90;20.40;;;;;;2234122;62;20398;-57
2021/04/06 03:34:54;0.00;0.00;0.62;0.00;0.00;0.62;1.23;0.80;;;20.80;20.30;;;;;;2233543;62;20403;-57
2021/04/06 03:37:40;0.00;0.00;0.62;0.00;0.00;0.62;1.27;0.77;;;20.80;20.30;;;;;;2233285;62;20666;-56
2021/04/06 03:40:28;0.00;0.00;0.62;0.00;0.00;0.62;1.40;0.73;;;20.80;20.30;;;;;;2234014;62;20375;-56
2021/04/06 03:43:15;0.00;0.00;0.62;0.00;0.00;0.62;1.50;0.90;;;20.80;20.30;;;;;;2235482;62;20401;-57
2021/04/06 03:46:03;0.00;0.00;0.62;0.00;0.00;0.62;1.40;0.80;;;20.70;20.30;;;;;;2233714;62;20367;-58
2021/04/06 03:48:48;0.00;0.00;0.62;0.00;0.00;0.62;1.30;0.80;;;20.70;20.30;;;;;;2233794;62;20466;-56
2021/04/06 03:51:33;0.00;0.00;0.62;0.00;0.00;0.62;1.53;0.83;;;20.70;20.30;;;;;;2233337;62;20370;-58
2021/04/06 03:54:38;0.00;0.00;0.62;0.00;0.00;0.62;2.60;1.00;;;20.70;20.30;;;;;;2233978;62;20394;-56
2021/04/06 03:57:38;0.00;0.00;0.62;0.00;0.00;0.62;1.80;0.87;;;20.70;20.30;;;;;;2233344;62;20389;-56
2021/04/06 04:00:22;0.00;0.00;0.62;0.00;0.00;0.62;2.50;1.20;;;20.60;20.20;;;;;;2233613;62;20467;-56
2021/04/06 04:03:07;0.00;0.00;0.62;0.00;0.00;0.62;2.83;1.10;;;20.60;20.20;;;;;;2233754;62;20357;-57
2021/04/06 04:05:52;0.00;0.00;0.62;0.00;0.00;0.62;1.50;1.00;;;20.60;20.20;;;;;;2232823;62;20445;-58
2021/04/06 04:08:36;0.00;0.00;0.62;0.00;0.00;0.62;1.75;1.00;;;20.50;20.10;;;;;;2235624;62;20405;-58
2021/04/06 04:11:23;0.00;0.00;0.62;0.00;0.00;0.62;1.40;0.90;;;20.50;20.00;;;;;;2233410;62;20246;-58
2021/04/06 04:14:07;0.00;0.00;0.62;0.00;0.00;0.62;1.53;0.90;;;20.50;20.00;;;;;;2233346;62;20529;-59
2021/04/06 04:16:53;0.00;0.00;0.62;0.00;0.00;0.62;1.77;1.27;;;20.50;20.60;;;;;;2233638;62;20509;-57
2021/04/06 04:19:38;0.00;0.00;0.62;0.00;0.00;0.62;1.37;0.90;;;20.50;20.00;;;;;;2234010;62;20710;-56
2021/04/06 04:22:22;0.00;0.00;0.62;0.00;0.00;0.62;1.87;0.90;;;20.40;20.00;;;;;;2234071;62;20501;-58
2021/04/06 04:25:09;0.00;0.00;0.62;0.00;0.00;0.62;1.97;0.97;;;20.40;20.00;;;;;;2234535;62;20411;-58
2021/04/06 04:27:55;0.00;0.00;0.62;0.00;0.00;0.62;2.07;0.83;;;20.40;20.10;;;;;;2233819;62;20736;-57
2021/04/06 04:30:48;0.00;0.00;0.62;0.00;0.00;0.62;2.03;1.20;;;20.30;20.10;;;;;;2234272;62;20595;-60
2021/04/06 04:33:33;0.00;0.00;0.62;0.00;0.00;0.62;3.40;1.00;;;20.30;20.10;;;;;;2234171;62;20390;-56
2021/04/06 04:36:17;0.00;0.00;0.62;0.00;0.00;0.62;1.60;0.90;;;20.30;20.10;;;;;;2233831;62;20751;-56
2021/04/06 04:39:02;0.00;0.00;0.62;0.00;0.00;0.62;1.63;0.90;;;20.30;20.20;;;;;;2234441;62;20435;-57
2021/04/06 04:41:51;0.00;0.00;0.62;0.00;0.00;0.62;1.73;1.00;;;20.20;20.10;;;;;;2236464;62;20366;-56
2021/04/06 04:44:37;0.00;0.00;0.62;0.00;0.00;0.62;1.67;0.93;;;20.20;20.10;;;;;;2233939;62;20367;-58
2021/04/06 04:47:22;0.00;0.00;0.62;0.00;0.00;0.62;2.60;1.00;;;20.20;20.20;;;;;;2234286;62;20401;-57
2021/04/06 04:50:09;0.00;0.00;0.62;0.00;0.00;0.62;2.30;0.90;;;20.20;20.20;;;;;;2233865;62;20384;-56
2021/04/06 04:52:54;0.00;0.00;0.62;0.00;0.00;0.62;2.33;1.10;;;20.10;20.10;;;;;;2234133;62;20405;-56
2021/04/06 04:55:38;0.00;0.00;0.62;0.00;0.00;0.62;1.40;0.90;;;20.10;20.20;;;;;;2234193;62;20386;-53
2021/04/06 04:58:23;0.00;0.00;0.62;0.00;0.00;0.62;1.53;0.90;;;20.10;20.20;;;;;;2233800;62;20426;-56
2021/04/06 05:01:08;0.00;0.00;0.62;0.00;0.00;0.62;1.60;0.90;;;20.10;20.20;;;;;;2234467;62;20371;-57
2021/04/06 05:03:53;0.00;0.00;0.62;0.00;0.00;0.62;2.70;0.90;;;20.10;20.20;;;;;;2234200;62;20489;-58
2021/04/06 05:06:38;0.00;0.00;0.62;0.00;0.00;0.62;2.47;0.80;;;20.10;20.20;;;;;;2233401;62;20606;-58
2021/04/06 05:09:22;0.00;0.00;0.62;0.00;0.00;0.62;2.30;1.20;;;20.00;20.20;;;;;;2234128;62;20362;-54
2021/04/06 05:12:08;0.00;0.00;0.62;0.00;0.00;0.62;1.67;0.90;;;20.00;20.20;;;;;;2236672;62;20400;-59
2021/04/06 05:14:55;0.00;0.00;0.62;0.00;0.00;0.62;2.60;0.97;;;20.00;20.30;;;;;;2233791;62;20396;-55
2021/04/06 05:17:40;0.00;0.00;0.62;0.00;0.00;0.62;2.30;0.77;;;20.00;20.30;;;;;;2234099;62;20605;-56
2021/04/06 05:20:25;0.00;0.00;0.62;0.00;0.00;0.62;2.17;1.30;;;20.00;20.30;;;;;;2233924;62;20366;-60
2021/04/06 05:23:10;0.00;0.00;0.62;0.00;0.00;0.62;2.77;1.00;;;20.00;20.30;;;;;;2234249;62;20390;-61
2021/04/06 05:25:55;0.00;0.00;0.62;0.00;0.00;0.62;1.20;0.70;;;20.00;20.30;;;;;;2233466;62;20459;-59
2021/04/06 05:28:39;0.00;0.00;0.62;0.00;0.00;0.62;2.00;0.90;;;19.90;20.30;;;;;;2233789;62;20427;-58
2021/04/06 05:31:24;0.00;0.00;0.62;0.00;0.00;0.62;2.07;0.80;;;19.90;20.30;;;;;;2234122;62;20375;-58
2021/04/06 05:34:09;0.00;0.00;0.62;0.00;0.00;0.62;2.07;1.13;;;19.90;20.30;;;;;;2233963;62;20432;-56
2021/04/06 05:36:54;0.00;0.00;0.62;0.00;0.00;0.62;1.70;1.17;;;19.90;20.30;;;;;;2233604;62;20420;-56
2021/04/06 05:39:38;0.00;0.00;0.62;0.00;0.00;0.62;2.37;1.07;;;19.90;20.30;;;;;;2234219;62;20374;-58
2021/04/06 05:42:26;0.00;0.00;0.62;0.00;0.00;0.62;1.40;0.80;;;19.80;20.30;;;;;;2234020;62;20387;-57
2021/04/06 05:45:11;0.00;0.00;0.62;0.00;0.00;0.62;1.67;1.07;;;19.80;20.20;;;;;;2234194;62;20511;-56
2021/04/06 05:47:58;0.00;0.00;0.62;0.00;0.00;0.62;1.90;0.80;;;19.80;20.20;;;;;;2233873;62;20403;-58
2021/04/06 05:50:50;0.00;0.00;0.62;0.00;0.00;0.62;1.60;1.00;;;19.80;20.20;;;;;;2234428;62;20401;-56
2021/04/06 05:53:35;0.00;0.00;0.62;0.00;0.00;0.62;2.37;1.00;;;19.70;20.10;;;;;;2234661;62;20398;-58
2021/04/06 05:56:19;0.00;0.00;0.62;0.00;0.00;0.62;1.80;1.00;;;19.70;20.10;;;;;;2233971;62;20421;-56
2021/04/06 05:59:05;0.00;0.00;0.62;0.00;0.00;0.62;1.60;1.00;;;19.70;20.10;;;;;;2234114;62;20419;-54
2021/04/06 06:01:50;0.00;0.00;0.62;0.00;0.00;0.62;2.00;1.00;;;19.70;20.20;;;;;;2234205;62;20419;-51
2021/04/06 06:04:35;0.00;0.00;0.62;0.00;0.00;0.62;4.40;1.10;;;19.70;20.30;;;;;;2233375;62;20419;-54
2021/04/06 06:07:20;0.00;0.00;0.62;0.00;0.00;0.62;1.50;1.00;;;19.60;20.30;;;;;;2234000;62;20608;-55
2021/04/06 06:10:28;0.00;0.00;0.62;0.00;0.00;0.62;4.20;1.20;;;19.70;20.40;;;;;;2233249;62;20399;-55
2021/04/06 06:13:21;0.00;0.00;0.62;0.00;0.00;0.62;2.27;0.80;;;19.70;20.40;;;;;;2233774;62;20397;-56
2021/04/06 06:16:13;0.00;0.00;0.62;0.00;0.00;0.62;1.37;0.70;;;19.70;20.40;;;;;;2233708;62;20716;-55
2021/04/06 06:19:04;0.00;0.00;0.62;0.00;0.00;0.62;1.93;0.90;;;19.70;20.40;;;;;;2233604;62;20638;-54
2021/04/06 06:21:52;0.00;0.00;0.62;0.00;0.00;0.62;1.30;0.70;;;19.70;20.40;;;;;;2233809;62;20419;-58
2021/04/06 06:24:43;0.00;0.00;0.62;0.00;0.00;0.62;1.60;0.90;;;19.70;20.40;;;;;;2233569;62;20389;-56
2021/04/06 06:27:39;0.00;0.00;0.62;0.00;0.00;0.62;2.13;0.80;;;19.70;20.40;;;;;;2233687;62;20426;-56
2021/04/06 06:30:31;0.00;0.00;0.62;0.00;0.00;0.62;2.40;0.97;;;19.80;20.50;;;;;;2234004;62;20395;-56
2021/04/06 06:33:20;0.00;0.00;0.62;0.00;0.00;0.62;1.80;0.97;;;19.80;20.50;;;;;;2235870;62;20424;-56
2021/04/06 06:36:10;0.00;0.00;0.62;0.00;0.00;0.62;2.07;0.83;;;19.80;20.50;;;;;;2233587;62;20370;-56
2021/04/06 06:39:04;0.00;0.00;0.62;0.00;0.00;0.62;2.17;0.90;;;19.80;20.50;;;;;;2233868;62;20386;-54
2021/04/06 06:41:58;0.00;0.00;0.62;0.00;0.00;0.62;1.87;0.80;;;19.80;20.40;;;;;;2233616;62;20369;-55
2021/04/06 06:44:43;0.00;0.00;0.62;0.00;0.00;0.62;4.47;0.83;;;19.90;20.50;;;;;;2234187;62;20423;-55
2021/04/06 06:47:31;0.00;0.00;0.62;0.00;0.00;0.62;1.50;0.90;;;19.90;20.50;;;;;;2233373;62;20625;-56
2021/04/06 06:50:17;0.00;0.00;0.62;0.00;0.00;0.62;2.07;0.70;;;19.90;20.50;;;;;;2233672;62;20624;-54
2021/04/06 06:53:01;0.00;0.00;0.62;0.00;0.00;0.62;1.20;0.70;;;19.90;20.50;;;;;;2233804;62;20610;-55
2021/04/06 06:55:51;0.00;0.00;0.62;0.00;0.00;0.62;1.40;0.80;;;19.90;20.50;;;;;;2233406;62;20370;-54
2021/04/06 06:58:42;0.00;0.00;0.62;0.00;0.00;0.62;1.13;0.70;;;20.00;20.50;;;;;;2233598;62;20387;-55
2021/04/06 07:01:30;0.00;0.00;0.62;0.00;0.00;0.62;1.33;0.90;;;20.00;20.60;;;;;;2233724;62;20382;-55
2021/04/06 07:04:15;0.00;0.00;0.62;0.00;0.00;0.62;2.30;0.90;;;20.00;20.50;;;;;;2233627;62;20383;-55
2021/04/06 07:06:59;0.00;0.00;0.62;0.00;0.00;0.62;1.10;0.60;;;20.00;20.50;;;;;;2233688;62;20420;-55
2021/04/06 07:09:46;0.00;0.00;0.62;0.00;0.00;0.62;1.73;1.00;;;20.00;20.50;;;;;;2233512;62;20375;-56
2021/04/06 07:12:31;0.00;0.00;0.62;0.00;0.00;0.62;1.50;0.90;;;20.00;20.50;;;;;;2233630;62;20549;-54
2021/04/06 07:15:18;0.00;0.00;0.62;0.00;0.00;0.62;1.40;0.90;;;20.00;20.50;;;;;;2233741;62;20402;-55
2021/04/06 07:18:08;0.00;0.00;0.62;0.00;0.00;0.62;1.50;0.80;;;20.00;20.50;;;;;;2233359;62;20437;-56
2021/04/06 07:20:56;0.00;0.00;0.62;0.00;0.00;0.62;1.63;0.80;;;20.10;20.60;;;;;;2233525;62;20372;-57
2021/04/06 07:23:49;0.00;0.00;0.62;0.00;0.00;0.62;1.73;0.70;;;20.10;20.60;;;;;;2233578;62;20361;-56
2021/04/06 07:26:34;0.00;0.00;0.62;0.00;0.00;0.62;1.57;0.70;;;20.10;20.60;;;;;;2233465;62;20777;-57
2021/04/06 07:29:20;0.00;0.00;0.62;0.00;0.00;0.62;1.40;0.80;;;20.10;20.60;;;;;;2233671;62;20489;-56
2021/04/06 07:32:10;0.00;0.00;0.62;0.00;0.00;0.62;1.50;0.70;;;20.10;20.50;;;;;;2233519;62;20743;-54
2021/04/06 07:34:55;0.00;0.00;0.62;0.00;0.00;0.62;1.63;0.70;;;20.10;20.60;;;;;;2233070;62;20399;-56
2021/04/06 07:37:41;0.00;0.00;0.62;0.00;0.00;0.62;1.73;0.90;;;20.10;20.50;;;;;;2233760;62;20776;-54
2021/04/06 07:40:32;0.00;0.00;0.62;0.00;0.00;0.62;1.90;0.80;;;20.10;20.60;;;;;;2233516;62;20412;-56
2021/04/06 07:43:17;0.00;0.00;0.62;0.00;0.00;0.62;2.83;0.80;;;20.20;20.60;;;;;;2233582;62;20407;-55
2021/04/06 07:46:02;0.00;0.00;0.62;0.00;0.00;0.62;1.53;0.70;;;20.20;20.60;;;;;;2233254;62;20627;-53
2021/04/06 07:48:49;0.00;0.00;0.62;0.00;0.00;0.62;1.30;0.70;;;20.20;20.60;;;;;;2235716;62;20445;-55
2021/04/06 07:51:41;0.00;0.00;0.62;0.00;0.00;0.62;1.20;0.70;;;20.20;20.60;;;;;;2233752;62;20394;-56
2021/04/06 07:54:45;0.00;0.00;0.62;0.00;0.00;0.62;1.67;0.90;;;20.20;20.60;;;;;;2235398;62;20776;-56
2021/04/06 07:57:43;0.00;0.00;0.62;0.00;0.00;0.62;1.77;0.90;;;20.20;20.60;;;;;;2233190;62;20802;-55
2021/04/06 08:00:48;0.00;0.00;0.62;0.00;0.00;0.62;1.60;0.80;;;20.20;20.60;;;;;;2233698;62;20371;-55
2021/04/06 08:04:04;0.00;0.00;0.62;0.00;0.00;0.62;1.83;0.80;;;20.20;20.60;;;;;;2233490;62;20470;-56
2021/04/06 08:06:51;0.00;0.00;0.62;0.00;0.00;0.62;1.30;0.80;;;20.20;20.60;;;;;;2233509;62;20423;-56
2021/04/06 08:09:43;0.00;0.00;0.62;0.00;0.00;0.62;2.23;0.77;;;20.20;21.10;;;;;;2233020;62;20403;-55
2021/04/06 08:12:33;0.00;0.00;0.62;0.00;0.00;0.62;1.20;0.80;;;20.30;20.70;;;;;;2233416;62;20435;-54
2021/04/06 08:15:20;0.00;0.00;0.62;0.00;0.00;0.62;1.33;0.87;;;20.30;20.60;;;;;;2233650;62;20387;-53
2021/04/06 08:18:06;0.00;0.00;0.62;0.00;0.00;0.62;1.97;1.27;;;20.30;20.60;;;;;;2233287;62;20405;-53
2021/04/06 08:21:08;0.00;0.00;0.62;0.00;0.00;0.62;1.70;0.80;;;20.30;20.60;;;;;;2233702;62;20366;-54
2021/04/06 08:23:52;0.00;0.00;0.62;0.00;0.00;0.62;1.57;0.80;;;20.40;20.70;;;;;;2233382;62;20358;-56
2021/04/06 08:26:37;0.00;0.00;0.62;0.00;0.00;0.62;1.80;1.10;;;20.40;20.70;;;;;;2235552;62;20375;-53
2021/04/06 08:29:29;0.00;0.00;0.62;0.00;0.00;0.62;1.43;0.80;;;20.40;20.70;;;;;;2233862;62;20371;-51
2021/04/06 08:32:16;0.00;0.00;0.62;0.00;0.00;0.62;1.60;0.90;;;20.30;20.60;;;;;;2233339;62;20439;-52
2021/04/06 08:35:00;0.00;0.00;0.62;0.00;0.00;0.62;1.30;0.70;;;20.40;20.60;;;;;;2233455;62;20443;-54
2021/04/06 08:37:46;0.00;0.00;0.62;0.00;0.00;0.62;1.80;0.70;;;20.40;20.60;;;;;;2233169;62;20432;-54
2021/04/06 08:40:45;0.00;0.00;0.62;0.00;0.00;0.62;1.30;0.80;;;20.40;20.60;;;;;;2233405;62;20374;-56
2021/04/06 08:43:32;0.00;0.00;0.62;0.00;0.00;0.62;1.90;0.90;;;20.40;20.60;;;;;;2233676;62;20414;-56
2021/04/06 08:46:43;0.00;0.00;0.62;0.00;0.00;0.62;2.40;1.40;;;20.50;20.70;;;;;;2233099;62;20431;-57
2021/04/06 08:49:28;0.00;0.00;0.62;0.00;0.00;0.62;2.47;1.03;;;20.50;20.70;;;;;;2233349;62;20692;-54
2021/04/06 08:52:14;0.00;0.00;0.62;0.00;0.00;0.62;1.73;1.07;;;20.50;20.70;;;;;;2233662;62;20458;-55
2021/04/06 08:55:08;0.00;0.00;0.62;0.00;0.00;0.62;1.60;1.03;;;20.50;20.70;;;;;;2233295;62;20443;-54
2021/04/06 08:57:57;0.00;0.00;0.62;0.00;0.00;0.62;1.40;0.70;;;20.50;20.70;;;;;;2233419;62;20390;-52
2021/04/06 09:00:41;0.00;0.00;0.62;0.00;0.00;0.62;1.70;0.90;;;20.50;20.70;;;;;;2233256;62;20384;-55
2021/04/06 09:03:26;0.00;0.00;0.62;0.00;0.00;0.62;1.50;0.80;;;20.50;20.70;;;;;;2233472;62;20429;-56
2021/04/06 09:06:13;0.00;0.00;0.62;0.00;0.00;0.62;1.30;0.80;;;20.60;20.70;;;;;;2234060;62;20376;-54
2021/04/06 09:08:57;0.00;0.00;0.62;0.00;0.00;0.62;1.50;0.80;;;20.60;20.70;;;;;;2233843;62;20416;-55
2021/04/06 09:11:44;0.00;0.00;0.62;0.00;0.00;0.62;1.60;0.90;;;20.60;20.70;;;;;;2234086;62;20363;-55
2021/04/06 09:14:30;0.00;0.00;0.62;0.00;0.00;0.62;2.10;0.90;;;20.60;20.70;;;;;;2234194;62;20725;-56
2021/04/06 09:17:15;0.00;0.00;0.62;0.00;0.00;0.62;1.60;0.90;;;20.60;20.70;;;;;;2233808;62;20395;-54
2021/04/06 09:20:06;0.00;0.00;0.62;0.00;0.00;0.62;1.50;0.83;;;20.60;20.70;;;;;;2236526;62;20419;-57
2021/04/06 09:22:50;0.00;0.00;0.62;0.00;0.00;0.62;2.23;1.00;;;20.60;20.70;;;;;;2233853;62;20367;-54
2021/04/06 09:25:35;0.00;0.00;0.62;0.00;0.00;0.62;1.83;0.90;;;20.60;20.70;;;;;;2233988;62;20364;-56
2021/04/06 09:28:21;0.00;0.00;0.62;0.00;0.00;0.62;1.80;1.00;;;20.70;20.80;;;;;;2234091;62;20383;-56
2021/04/06 09:31:06;0.00;0.00;0.62;0.00;0.00;0.62;1.47;0.80;;;20.70;20.80;;;;;;2233972;62;20367;-55
2021/04/06 09:33:51;0.00;0.00;0.62;0.00;0.00;0.62;2.33;1.20;;;20.70;20.80;;;;;;2236196;62;20418;-56
2021/04/06 09:36:37;0.00;0.00;0.62;0.00;0.00;0.62;1.70;0.93;;;20.70;20.80;;;;;;2234059;62;20645;-57
2021/04/06 09:39:23;0.00;0.00;0.62;0.00;0.00;0.62;1.73;0.93;;;20.70;20.80;;;;;;2233907;62;20396;-56
2021/04/06 09:42:09;0.00;0.00;0.62;0.00;0.00;0.62;1.60;1.10;;;20.80;20.80;;;;;;2234234;62;20732;-57
2021/04/06 09:44:54;0.00;0.00;0.62;0.00;0.00;0.62;2.33;1.47;;;20.70;20.70;;;;;;2233840;62;20716;-55
2021/04/06 09:47:39;0.00;0.00;0.62;0.00;0.00;0.62;1.80;0.97;;;20.80;20.80;;;;;;2233726;62;20444;-57
2021/04/06 09:50:26;0.00;0.00;0.62;0.00;0.00;0.62;2.53;1.37;;;20.80;20.80;;;;;;2234098;62;20722;-56
2021/04/06 09:53:18;0.00;0.00;0.62;0.00;0.00;0.62;1.80;1.17;;;20.80;20.80;;;;;;2236146;62;20369;-57
2021/04/06 09:56:04;0.00;0.00;0.62;0.00;0.00;0.62;2.20;1.20;;;20.80;20.80;;;;;;2233701;62;20420;-56
2021/04/06 09:58:49;0.00;0.00;0.62;0.00;0.00;0.62;1.60;1.00;;;20.80;20.70;;;;;;2234035;62;20387;-56
2021/04/06 10:01:37;0.00;0.00;0.62;0.00;0.00;0.62;1.60;1.00;;;20.80;20.70;;;;;;2233855;62;20500;-56
2021/04/06 10:04:35;0.00;0.00;0.62;0.00;0.00;0.62;2.07;1.20;;;20.80;20.70;;;;;;2234136;62;20372;-55
2021/04/06 10:07:22;0.00;0.00;0.62;0.00;0.00;0.62;1.93;1.30;;;20.80;20.70;;;;;;2233856;62;20490;-56
2021/04/06 10:10:20;0.00;0.00;0.62;0.00;0.00;0.62;2.70;1.27;;;20.80;20.80;;;;;;2235995;62;20625;-56
2021/04/06 10:13:06;0.00;0.00;0.62;0.00;0.00;0.62;1.40;1.00;;;20.80;20.80;;;;;;2234116;62;20428;-57
2021/04/06 10:16:05;0.00;0.00;0.62;0.00;0.00;0.62;1.83;1.10;;;20.90;20.90;;;;;;2233576;62;20371;-55
2021/04/06 10:18:50;0.00;0.00;0.62;0.00;0.00;0.62;2.47;1.60;;;20.90;20.90;;;;;;2233997;62;20768;-56
2021/04/06 10:21:35;0.00;0.00;0.62;0.00;0.00;0.62;1.87;1.07;;;20.90;20.90;;;;;;2233751;62;20368;-57
2021/04/06 10:24:26;0.00;0.00;0.62;0.00;0.00;0.62;1.63;1.07;;;20.90;20.90;;;;;;2233928;62;20366;-56
2021/04/06 10:27:18;0.00;0.00;0.62;0.00;0.00;0.62;1.50;0.90;;;20.90;20.80;;;;;;2233987;62;20388;-57
2021/04/06 10:30:06;0.00;0.00;0.62;0.00;0.00;0.62;1.57;1.00;;;21.00;20.90;;;;;;2233537;62;20854;-56
2021/04/06 10:32:52;0.00;0.00;0.62;0.00;0.00;0.62;2.40;1.50;;;21.00;20.80;;;;;;2233863;62;20367;-55
2021/04/06 10:35:43;0.00;0.00;0.62;0.00;0.00;0.62;1.47;1.00;;;21.00;20.80;;;;;;2233972;62;20434;-57
2021/04/06 10:38:34;0.00;0.00;0.62;0.00;0.00;0.62;1.97;1.00;;;21.00;20.80;;;;;;2233598;62;20462;-55
2021/04/06 10:41:25;0.00;0.00;0.62;0.00;0.00;0.62;1.73;1.20;;;21.10;20.90;;;;;;2234058;62;20644;-57
2021/04/06 10:44:10;0.00;0.00;0.62;0.00;0.00;0.62;1.60;1.17;;;21.10;20.90;;;;;;2233551;62;20424;-55
2021/04/06 10:46:54;0.00;0.00;0.62;0.00;0.00;0.62;1.97;1.07;;;21.10;20.90;;;;;;2233533;62;20368;-55
2021/04/06 10:49:39;0.00;0.00;0.62;0.00;0.00;0.62;1.40;1.00;;;21.10;20.90;;;;;;2233966;62;20439;-54
2021/04/06 10:52:30;0.00;0.00;0.62;0.00;0.00;0.62;2.93;1.37;;;21.20;20.90;;;;;;2233526;62;20433;-54
2021/04/06 10:55:15;0.00;0.00;0.62;0.00;0.00;0.62;1.77;1.00;;;21.20;20.90;;;;;;2233369;62;20434;-54
2021/04/06 10:58:00;0.00;0.00;0.62;0.00;0.00;0.62;2.53;1.30;;;21.20;20.90;;;;;;2233761;62;20387;-56
2021/04/06 11:00:44;0.00;0.00;0.62;0.00;0.00;0.62;2.17;1.30;;;21.20;20.90;;;;;;2233814;62;20630;-55
2021/04/06 11:03:49;0.00;0.00;0.62;0.00;0.00;0.62;1.77;0.90;;;21.30;20.90;;;;;;2233984;62;20375;-55